createdAt,value
2022-12-05T00:00:31.967Z,68.69
2022-12-05T00:02:58.665Z,67.99
2022-12-05T00:05:44.162Z,68.52
2022-12-05T00:08:10.877Z,67.63
2022-12-05T00:10:38.491Z,67.54
2022-12-05T00:13:05.360Z,67.69
2022-12-05T00:16:34.096Z,67.85
2022-12-05T00:19:31.929Z,67.93
2022-12-05T00:21:58.488Z,69.02
2022-12-05T00:24:37.933Z,68.75
2022-12-05T00:35:31.341Z,69.60
2022-12-05T00:37:57.875Z,70.05
2022-12-05T00:40:25.904Z,70.97
2022-12-05T00:42:52.693Z,69.79
2022-12-05T00:49:22.211Z,69.93
2022-12-05T00:51:48.940Z,69.52
2022-12-05T00:54:16.650Z,68.47
2022-12-05T00:56:44.593Z,69.31
2022-12-05T00:59:19.183Z,69.65
2022-12-05T01:01:47.759Z,69.23
2022-12-05T01:04:36.667Z,69.85
2022-12-05T01:07:03.252Z,69.63
2022-12-05T01:09:29.906Z,70.04
2022-12-05T01:11:56.664Z,70.86
2022-12-05T01:18:32.415Z,69.54
2022-12-05T01:20:59.045Z,71.89
2022-12-05T01:23:25.778Z,71.57
2022-12-05T01:25:56.283Z,72.38
2022-12-05T01:28:23.034Z,71.78
2022-12-05T01:30:54.185Z,70.75
2022-12-05T01:50:53.017Z,70.38
2022-12-05T01:53:19.971Z,70.50
2022-12-05T01:55:48.575Z,71.15
2022-12-05T01:58:16.391Z,71.19
2022-12-05T02:00:44.161Z,70.28
2022-12-05T02:03:31.324Z,71.32
2022-12-05T02:05:59.432Z,71.51
2022-12-05T02:08:28.418Z,72.32
2022-12-05T02:10:57.433Z,72.80
2022-12-05T02:17:42.428Z,72.46
2022-12-05T02:20:35.228Z,72.37
2022-12-05T02:23:23.658Z,74.12
2022-12-05T02:26:18.264Z,72.31
2022-12-05T02:29:08.014Z,72.37
2022-12-05T02:31:53.611Z,71.87
2022-12-05T02:34:37.021Z,71.59
2022-12-05T02:39:55.579Z,71.51
2022-12-05T02:49:07.856Z,71.16
2022-12-05T02:51:40.537Z,70.91
2022-12-05T02:54:12.599Z,70.79
2022-12-05T02:56:43.842Z,71.77
2022-12-05T02:59:10.510Z,71.79
2022-12-05T03:01:50.650Z,72.93
2022-12-05T03:04:20.139Z,72.28
2022-12-05T03:06:58.580Z,72.97
2022-12-05T03:10:11.416Z,73.43
2022-12-05T03:16:54.844Z,71.75
2022-12-05T03:19:31.077Z,74.60
2022-12-05T03:22:09.383Z,72.92
2022-12-05T03:27:43.515Z,74.21
2022-12-05T03:30:16.825Z,73.63
2022-12-05T03:44:32.010Z,73.24
2022-12-05T03:50:50.552Z,72.82
2022-12-05T03:53:42.687Z,75.42
2022-12-05T03:56:19.355Z,73.83
2022-12-05T03:58:59.017Z,73.95
2022-12-05T04:01:32.494Z,72.44
2022-12-05T04:20:32.834Z,73.19
2022-12-05T04:23:00.665Z,72.72
2022-12-05T05:37:14.555Z,74.94
2022-12-05T05:39:41.310Z,74.48
2022-12-05T05:42:07.873Z,74.26
2022-12-05T05:44:34.438Z,74.70
2022-12-05T05:47:01.057Z,74.78
2022-12-05T05:49:27.640Z,74.21
2022-12-05T05:51:54.223Z,74.16
2022-12-05T05:54:20.788Z,74.14
2022-12-05T05:56:47.336Z,73.98
2022-12-05T05:59:13.893Z,75.04
2022-12-05T06:01:40.518Z,75.14
2022-12-05T06:04:07.934Z,75.45
2022-12-05T06:06:34.841Z,74.83
2022-12-05T06:09:01.402Z,75.33
2022-12-05T06:11:28.548Z,73.59
2022-12-05T06:13:57.062Z,74.15
2022-12-05T06:16:24.218Z,73.41
2022-12-05T06:18:52.366Z,72.86
2022-12-05T06:21:19.248Z,74.60
2022-12-05T06:23:45.982Z,75.61
2022-12-05T06:26:18.464Z,74.43
2022-12-05T06:28:45.503Z,74.67
2022-12-05T06:31:18.230Z,75.05
2022-12-05T06:33:57.725Z,73.50
2022-12-05T06:36:24.373Z,72.79
2022-12-05T06:38:50.917Z,72.23
2022-12-05T06:41:20.269Z,73.49
2022-12-05T06:43:47.525Z,75.15
2022-12-05T06:46:15.852Z,73.03
2022-12-05T06:48:42.605Z,74.23
2022-12-05T06:51:11.449Z,73.74
2022-12-05T06:53:38.935Z,74.71
2022-12-05T06:56:13.816Z,74.84
2022-12-05T06:58:44.969Z,74.24
2022-12-05T07:01:31.855Z,72.67
2022-12-05T07:03:59.260Z,71.87
2022-12-05T07:06:26.641Z,72.33
2022-12-05T07:08:53.847Z,76.91
2022-12-05T07:11:21.232Z,74.84
2022-12-05T07:13:47.845Z,74.92
2022-12-05T07:16:15.617Z,75.55
2022-12-05T07:18:42.319Z,75.70
2022-12-05T07:21:13.616Z,75.69
2022-12-05T07:23:41.735Z,74.20
2022-12-05T07:26:11.238Z,73.70
2022-12-05T07:28:37.803Z,72.76
2022-12-05T07:31:07.064Z,72.09
2022-12-05T07:33:34.534Z,72.20
2022-12-05T07:36:02.880Z,72.06
2022-12-05T07:38:29.701Z,74.09
2022-12-05T07:40:56.695Z,73.96
2022-12-05T07:43:23.799Z,72.91
2022-12-05T07:45:50.958Z,73.41
2022-12-05T07:48:18.997Z,73.26
2022-12-05T07:50:45.865Z,72.64
2022-12-05T07:53:12.481Z,73.45
2022-12-05T07:55:39.318Z,73.30
2022-12-05T07:58:06.012Z,71.65
2022-12-05T08:00:32.661Z,72.51
2022-12-05T08:02:59.372Z,71.95
2022-12-05T08:11:23.146Z,71.56
2022-12-05T08:13:50.031Z,72.32
2022-12-05T08:16:19.704Z,73.41
2022-12-05T08:18:46.915Z,73.61
2022-12-05T08:25:27.408Z,73.21
2022-12-05T08:27:54.047Z,72.48
2022-12-05T08:30:20.604Z,71.77
2022-12-05T08:32:47.323Z,72.36
2022-12-05T08:35:14.068Z,73.28
2022-12-05T08:37:40.796Z,73.41
2022-12-05T08:40:11.222Z,71.90
2022-12-05T09:12:50.556Z,70.07
2022-12-05T09:15:18.035Z,71.23
2022-12-05T09:17:45.172Z,70.24
2022-12-05T09:27:08.945Z,71.15
2022-12-05T09:29:35.686Z,70.50
2022-12-05T09:32:02.832Z,70.09
2022-12-05T09:34:29.419Z,70.84
2022-12-05T09:37:10.672Z,69.69
2022-12-05T09:39:45.226Z,69.92
2022-12-05T09:42:35.134Z,70.41
2022-12-05T09:45:25.870Z,70.71
2022-12-05T09:48:20.145Z,70.38
2022-12-05T09:50:50.448Z,71.19
2022-12-05T09:53:34.629Z,72.11
2022-12-05T09:56:05.726Z,71.66
2022-12-05T09:58:54.350Z,70.56
2022-12-05T10:01:42.591Z,70.32
2022-12-05T10:04:34.946Z,69.92
2022-12-05T10:07:20.199Z,69.76
2022-12-05T10:10:23.935Z,69.95
2022-12-05T10:13:02.673Z,69.94
2022-12-05T10:15:29.481Z,69.73
2022-12-05T10:18:10.090Z,71.53
2022-12-05T10:20:42.142Z,70.55
2022-12-05T10:23:58.324Z,69.73
2022-12-05T10:26:34.370Z,70.92
2022-12-05T10:29:18.673Z,70.32
2022-12-05T10:31:47.259Z,69.73
2022-12-05T10:34:28.499Z,67.75
2022-12-05T10:37:06.011Z,66.79
2022-12-05T10:39:32.812Z,67.87
2022-12-05T10:41:59.832Z,66.72
2022-12-05T10:44:26.463Z,69.67
2022-12-05T10:46:53.162Z,68.90
2022-12-05T10:49:21.075Z,68.35
2022-12-05T10:51:49.097Z,67.64
2022-12-05T10:54:30.108Z,67.71
2022-12-05T10:56:57.620Z,67.50
2022-12-05T10:59:26.794Z,67.08
2022-12-05T11:01:59.265Z,66.54
2022-12-05T11:04:49.161Z,67.12
2022-12-05T11:07:35.397Z,68.97
2022-12-05T11:10:21.132Z,70.94
2022-12-05T11:12:51.951Z,71.36
2022-12-05T11:15:25.491Z,68.71
2022-12-05T11:17:56.985Z,68.07
2022-12-05T11:20:23.437Z,66.16
2022-12-05T11:22:52.063Z,66.11
2022-12-05T11:28:18.150Z,66.06
2022-12-05T11:31:06.376Z,66.46
2022-12-05T11:33:35.242Z,66.66
2022-12-05T11:36:13.424Z,65.58
2022-12-05T11:38:42.132Z,65.73
2022-12-05T11:47:48.419Z,67.17
2022-12-05T11:50:28.288Z,67.74
2022-12-05T11:53:04.343Z,66.71
2022-12-05T11:55:43.521Z,67.98
2022-12-05T11:58:38.075Z,66.78
2022-12-05T12:01:07.736Z,68.91
2022-12-05T12:03:43.886Z,69.56
2022-12-05T12:06:32.717Z,69.80
2022-12-05T12:09:17.995Z,71.59
2022-12-05T12:11:50.506Z,69.96
2022-12-05T12:17:41.780Z,70.20
2022-12-05T12:32:34.597Z,72.51
2022-12-05T12:35:19.863Z,69.24
2022-12-05T12:38:01.406Z,68.04
2022-12-05T12:40:34.917Z,69.48
2022-12-05T12:43:56.036Z,68.86
2022-12-05T12:46:34.114Z,67.25
2022-12-05T12:49:15.451Z,68.99
2022-12-05T12:51:54.349Z,69.18
2022-12-05T12:55:03.427Z,69.78
2022-12-05T12:57:43.114Z,70.60
2022-12-05T13:00:37.142Z,69.82
2022-12-05T13:03:24.917Z,69.97
2022-12-05T13:06:05.087Z,71.04
2022-12-05T13:08:48.194Z,70.85
2022-12-05T13:11:16.915Z,70.23
2022-12-05T13:13:49.663Z,71.21
2022-12-05T13:16:45.516Z,71.42
2022-12-05T13:19:24.822Z,71.26
2022-12-05T13:21:52.620Z,71.36
2022-12-05T13:24:23.427Z,72.73
2022-12-05T13:26:50.478Z,74.29
2022-12-05T13:53:47.290Z,73.10
2022-12-05T13:56:13.884Z,73.70
2022-12-05T13:58:43.788Z,70.83
2022-12-05T14:01:47.665Z,71.05
2022-12-05T14:04:43.676Z,72.12
2022-12-05T14:07:11.308Z,74.14
2022-12-05T14:09:55.455Z,74.14
2022-12-05T14:12:22.150Z,73.43
2022-12-05T14:14:58.064Z,73.56
2022-12-05T14:17:27.213Z,71.44
2022-12-05T14:20:22.109Z,70.19
2022-12-05T14:23:00.693Z,73.97
2022-12-05T14:26:16.927Z,70.42
2022-12-05T14:28:52.424Z,72.20
2022-12-05T14:31:43.778Z,70.81
2022-12-05T14:34:16.486Z,69.47
2022-12-05T14:36:56.660Z,69.04
2022-12-05T14:39:38.479Z,70.56
2022-12-05T14:42:21.163Z,69.89
2022-12-05T14:44:50.135Z,68.71
2022-12-05T14:47:28.080Z,67.50
2022-12-05T14:50:15.003Z,69.90
2022-12-05T14:52:41.834Z,72.19
2022-12-05T14:55:19.636Z,72.25
2022-12-05T14:57:49.766Z,73.52
2022-12-05T15:00:23.258Z,73.36
2022-12-05T15:02:53.448Z,74.70
2022-12-05T15:05:34.132Z,72.44
2022-12-05T15:08:03.901Z,76.09
2022-12-05T15:10:38.117Z,77.01
2022-12-05T15:13:28.383Z,75.36
2022-12-05T15:16:07.050Z,73.73
2022-12-05T15:18:57.771Z,72.88
2022-12-05T15:21:39.425Z,72.96
2022-12-05T15:24:13.396Z,73.14
2022-12-05T15:26:50.639Z,73.07
2022-12-05T15:29:23.515Z,73.89
2022-12-05T15:31:55.391Z,74.22
2022-12-05T15:34:40.285Z,75.15
2022-12-05T15:37:19.254Z,76.24
2022-12-05T15:40:04.852Z,76.23
2022-12-05T15:42:43.169Z,78.75
2022-12-05T15:45:15.979Z,77.65
2022-12-05T15:47:48.341Z,76.96
2022-12-05T15:50:25.364Z,76.98
2022-12-05T15:52:59.923Z,76.67
2022-12-05T15:55:38.824Z,77.81
2022-12-05T15:58:24.579Z,77.88
2022-12-05T16:00:57.119Z,77.38
2022-12-05T16:03:41.433Z,76.41
2022-12-05T16:06:13.994Z,76.37
2022-12-05T16:08:46.179Z,73.00
2022-12-05T16:11:14.329Z,72.80
2022-12-05T16:13:51.218Z,73.07
2022-12-05T16:16:21.541Z,73.28
2022-12-05T16:18:59.821Z,75.97
2022-12-05T16:21:42.133Z,76.87
2022-12-05T16:24:16.959Z,76.48
2022-12-05T16:26:44.061Z,76.46
2022-12-05T16:29:28.329Z,78.80
2022-12-05T16:32:00.535Z,77.24
2022-12-05T16:34:28.927Z,76.25
2022-12-05T16:36:56.872Z,78.08
2022-12-05T16:39:25.776Z,77.55
2022-12-05T16:41:52.838Z,75.34
2022-12-05T16:44:28.666Z,75.51
2022-12-05T16:46:56.416Z,75.93
2022-12-05T16:49:34.548Z,75.48
2022-12-05T16:52:11.725Z,77.04
2022-12-05T16:54:38.322Z,75.59
2022-12-05T16:57:05.181Z,74.55
2022-12-05T16:59:37.736Z,73.73
2022-12-05T17:02:07.938Z,76.11
2022-12-05T17:04:34.565Z,76.64
2022-12-05T17:07:01.178Z,74.16
2022-12-05T17:09:27.836Z,75.71
2022-12-05T17:12:03.149Z,76.65
2022-12-05T17:14:29.857Z,77.48
2022-12-05T17:16:56.431Z,78.74
2022-12-05T17:19:23.305Z,80.29
2022-12-05T17:21:49.868Z,81.30
2022-12-05T17:24:18.434Z,80.50
2022-12-05T17:26:48.075Z,79.98
2022-12-05T17:29:14.661Z,79.00
2022-12-05T17:31:50.267Z,79.82
2022-12-05T17:34:17.867Z,79.92
2022-12-05T17:36:44.957Z,79.63
2022-12-05T17:39:11.717Z,81.78
2022-12-05T17:41:38.357Z,81.50
2022-12-05T17:44:05.784Z,80.93
2022-12-05T17:46:32.490Z,79.31
2022-12-05T17:48:59.144Z,78.65
2022-12-05T17:51:26.476Z,78.40
2022-12-05T17:53:54.196Z,76.20
2022-12-05T17:56:21.604Z,77.03
2022-12-05T17:58:48.362Z,77.77
2022-12-05T18:01:18.493Z,79.02
2022-12-05T18:03:45.751Z,76.43
2022-12-05T18:06:12.998Z,78.10
2022-12-05T18:08:40.099Z,78.24
2022-12-05T18:11:07.079Z,76.02
2022-12-05T18:13:34.447Z,76.39
2022-12-05T18:16:01.913Z,80.03
2022-12-05T18:18:29.543Z,78.63
2022-12-05T18:21:06.200Z,77.09
2022-12-05T18:23:34.348Z,78.43
2022-12-05T18:26:01.234Z,75.25
2022-12-05T18:28:28.118Z,75.18
2022-12-05T18:31:11.633Z,74.81
2022-12-05T18:33:39.021Z,77.43
2022-12-05T18:36:11.638Z,77.75
2022-12-05T18:38:38.992Z,77.89
2022-12-05T18:41:06.668Z,76.59
2022-12-05T18:43:33.604Z,76.25
2022-12-05T18:46:03.236Z,77.38
2022-12-05T18:48:46.019Z,77.67
2022-12-05T18:51:17.440Z,76.67
2022-12-05T18:53:53.664Z,75.12
2022-12-05T18:56:34.488Z,78.55
2022-12-05T18:59:03.964Z,77.04
2022-12-05T19:01:32.424Z,76.46
2022-12-05T19:04:00.374Z,77.58
2022-12-05T19:06:32.934Z,77.16
2022-12-05T19:09:02.106Z,77.29
2022-12-05T19:11:29.396Z,78.51
2022-12-05T19:13:57.456Z,77.04
2022-12-05T19:16:25.090Z,77.79
2022-12-05T19:19:00.329Z,78.08
2022-12-05T19:21:30.143Z,79.00
2022-12-05T19:23:57.413Z,77.09
2022-12-05T19:26:25.167Z,75.94
2022-12-05T19:28:51.834Z,75.56
2022-12-05T19:31:21.166Z,74.35
2022-12-05T19:33:51.373Z,75.87
2022-12-05T19:36:25.792Z,74.84
2022-12-05T19:38:53.959Z,74.42
2022-12-05T19:41:23.876Z,76.13
2022-12-05T19:43:51.447Z,76.43
2022-12-05T19:46:21.067Z,76.66
2022-12-05T19:48:48.509Z,76.29
2022-12-05T19:51:15.384Z,75.47
2022-12-05T19:53:45.876Z,77.33
2022-12-05T19:56:19.153Z,76.10
2022-12-05T19:58:46.687Z,77.54
2022-12-05T20:01:18.825Z,78.15
2022-12-05T20:03:50.945Z,78.00
2022-12-05T20:06:19.215Z,77.48
2022-12-05T20:08:47.270Z,75.65
2022-12-05T20:11:17.223Z,77.96
2022-12-05T20:13:46.821Z,79.02
2022-12-05T20:16:15.966Z,80.76
2022-12-05T20:18:42.699Z,80.35
2022-12-05T20:21:11.854Z,77.13
2022-12-05T20:23:38.513Z,78.01
2022-12-05T20:26:12.994Z,76.42
2022-12-05T20:28:40.057Z,76.46
2022-12-05T20:31:31.459Z,75.08
2022-12-05T20:33:58.205Z,78.01
2022-12-05T20:36:27.511Z,82.47
2022-12-05T20:38:58.746Z,82.73
2022-12-05T20:41:26.127Z,81.99
2022-12-05T20:43:55.355Z,81.32
2022-12-05T20:46:22.994Z,79.88
2022-12-05T20:48:51.456Z,80.88
2022-12-05T20:51:21.266Z,78.46
2022-12-05T20:53:48.330Z,79.76
2022-12-05T20:56:25.212Z,79.62
2022-12-05T20:58:53.611Z,77.14
2022-12-05T21:01:21.940Z,77.82
2022-12-05T21:03:50.439Z,80.23
2022-12-05T21:06:19.843Z,79.44
2022-12-05T21:08:46.552Z,79.82
2022-12-05T21:11:13.989Z,77.50
2022-12-05T21:13:41.200Z,81.75
2022-12-05T21:16:13.245Z,81.56
2022-12-05T21:18:41.031Z,81.76
2022-12-05T21:21:27.551Z,81.17
2022-12-05T21:23:59.801Z,80.12
2022-12-05T21:26:28.334Z,79.91
2022-12-05T21:28:55.701Z,82.27
2022-12-05T21:31:53.139Z,81.02
2022-12-05T21:35:08.318Z,78.57
2022-12-05T21:56:50.973Z,77.10
2022-12-05T21:59:21.518Z,77.34
2022-12-05T22:01:49.734Z,81.39
2022-12-05T22:08:42.971Z,79.18
2022-12-05T22:11:17.563Z,77.36
2022-12-05T22:13:48.867Z,76.08
2022-12-05T22:16:17.397Z,75.23
2022-12-05T22:18:44.438Z,74.05
2022-12-05T22:21:14.524Z,76.27
2022-12-05T22:23:42.446Z,76.20
2022-12-05T22:26:17.980Z,74.30
2022-12-05T22:28:45.391Z,75.99
2022-12-05T22:31:14.844Z,78.53
2022-12-05T22:33:46.021Z,81.59
2022-12-05T22:36:15.770Z,78.91
2022-12-05T22:41:25.700Z,80.15
2022-12-05T22:46:28.489Z,77.76
2022-12-05T22:53:13.112Z,77.43
2022-12-05T22:55:39.721Z,77.29
2022-12-05T22:58:06.661Z,76.46
2022-12-05T23:00:33.392Z,77.65
2022-12-05T23:02:59.949Z,76.60
2022-12-05T23:05:26.773Z,75.47
2022-12-05T23:10:51.022Z,75.39
2022-12-05T23:13:17.615Z,75.51
2022-12-05T23:15:44.632Z,75.57
2022-12-05T23:18:11.347Z,77.81
2022-12-05T23:20:37.890Z,77.23
2022-12-05T23:23:04.437Z,78.65
2022-12-05T23:29:49.365Z,78.17
2022-12-05T23:32:16.015Z,76.89
2022-12-05T23:34:48.391Z,78.27
2022-12-05T23:56:01.953Z,83.37
